sensor_id;sensor_type;location;lat;lon;timestamp;temperature;humidity
16829;DHT22;8531;48.078;11.968;2023-10-31T00:00:27;11.10;99.90
16829;DHT22;8531;48.078;11.968;2023-10-31T00:02:53;11.10;99.90
16829;DHT22;8531;48.078;11.968;2023-10-31T00:05:19;11.20;99.90
16829;DHT22;8531;48.078;11.968;2023-10-31T00:07:45;11.20;99.90
16829;DHT22;8531;48.078;11.968;2023-10-31T00:10:10;11.20;99.90
16829;DHT22;8531;48.078;11.968;2023-10-31T00:12:36;11.20;99.90
16829;DHT22;8531;48.078;11.968;2023-10-31T00:15:04;11.20;99.90
16829;DHT22;8531;48.078;11.968;2023-10-31T00:17:30;11.00;99.90
16829;DHT22;8531;48.078;11.968;2023-10-31T00:19:55;10.90;99.90
16829;DHT22;8531;48.078;11.968;2023-10-31T00:22:21;10.80;99.90
16829;DHT22;8531;48.078;11.968;2023-10-31T00:24:48;10.60;99.90
16829;DHT22;8531;48.078;11.968;2023-10-31T00:27:13;10.60;99.90
16829;DHT22;8531;48.078;11.968;2023-10-31T00:29:40;10.50;99.90
16829;DHT22;8531;48.078;11.968;2023-10-31T00:32:06;10.50;99.90
16829;DHT22;8531;48.078;11.968;2023-10-31T00:34:31;10.50;99.90
16829;DHT22;8531;48.078;11.968;2023-10-31T00:36:57;10.50;99.90
16829;DHT22;8531;48.078;11.968;2023-10-31T00:39:23;10.40;99.90
16829;DHT22;8531;48.078;11.968;2023-10-31T00:41:49;10.30;99.90
16829;DHT22;8531;48.078;11.968;2023-10-31T00:44:14;10.20;99.90
16829;DHT22;8531;48.078;11.968;2023-10-31T00:46:40;10.20;99.90
16829;DHT22;8531;48.078;11.968;2023-10-31T00:49:06;10.20;99.90
16829;DHT22;8531;48.078;11.968;2023-10-31T00:51:32;10.20;99.90
16829;DHT22;8531;48.078;11.968;2023-10-31T00:53:57;10.20;99.90
16829;DHT22;8531;48.078;11.968;2023-10-31T00:56:23;10.20;99.90
16829;DHT22;8531;48.078;11.968;2023-10-31T00:58:49;10.20;99.90
16829;DHT22;8531;48.078;11.968;2023-10-31T01:01:15;10.10;99.90
16829;DHT22;8531;48.078;11.968;2023-10-31T01:03:41;10.10;99.90
16829;DHT22;8531;48.078;11.968;2023-10-31T01:06:07;10.10;99.90
16829;DHT22;8531;48.078;11.968;2023-10-31T01:08:34;10.20;99.90
16829;DHT22;8531;48.078;11.968;2023-10-31T01:11:00;10.20;99.90
16829;DHT22;8531;48.078;11.968;2023-10-31T01:13:25;10.20;99.90
16829;DHT22;8531;48.078;11.968;2023-10-31T01:15:51;10.20;99.90
16829;DHT22;8531;48.078;11.968;2023-10-31T01:18:17;10.20;99.90
16829;DHT22;8531;48.078;11.968;2023-10-31T01:20:43;10.20;99.90
16829;DHT22;8531;48.078;11.968;2023-10-31T01:23:09;10.20;99.90
16829;DHT22;8531;48.078;11.968;2023-10-31T01:25:34;10.20;99.90
16829;DHT22;8531;48.078;11.968;2023-10-31T01:28:00;10.20;99.90
16829;DHT22;8531;48.078;11.968;2023-10-31T01:30:26;10.20;99.90
16829;DHT22;8531;48.078;11.968;2023-10-31T01:32:51;10.20;99.90
16829;DHT22;8531;48.078;11.968;2023-10-31T01:35:17;10.20;99.90
16829;DHT22;8531;48.078;11.968;2023-10-31T01:37:42;10.20;99.90
16829;DHT22;8531;48.078;11.968;2023-10-31T01:40:11;10.20;99.90
16829;DHT22;8531;48.078;11.968;2023-10-31T01:42:37;10.20;99.90
16829;DHT22;8531;48.078;11.968;2023-10-31T01:45:03;10.20;99.90
16829;DHT22;8531;48.078;11.968;2023-10-31T01:47:29;10.20;99.90
16829;DHT22;8531;48.078;11.968;2023-10-31T01:49:55;10.20;99.90
16829;DHT22;8531;48.078;11.968;2023-10-31T01:52:21;10.20;99.90
16829;DHT22;8531;48.078;11.968;2023-10-31T01:54:47;10.10;99.90
16829;DHT22;8531;48.078;11.968;2023-10-31T01:57:14;10.10;99.90
16829;DHT22;8531;48.078;11.968;2023-10-31T01:59:40;10.10;99.90
16829;DHT22;8531;48.078;11.968;2023-10-31T02:02:06;10.10;99.90
16829;DHT22;8531;48.078;11.968;2023-10-31T02:04:32;10.00;99.90
16829;DHT22;8531;48.078;11.968;2023-10-31T02:06:57;10.00;99.90
16829;DHT22;8531;48.078;11.968;2023-10-31T02:09:23;10.00;99.90
16829;DHT22;8531;48.078;11.968;2023-10-31T02:11:51;10.00;99.90
16829;DHT22;8531;48.078;11.968;2023-10-31T02:14:17;10.00;99.90
16829;DHT22;8531;48.078;11.968;2023-10-31T02:16:42;9.90;99.90
16829;DHT22;8531;48.078;11.968;2023-10-31T02:19:08;9.90;99.90
16829;DHT22;8531;48.078;11.968;2023-10-31T02:21:39;10.00;99.90
16829;DHT22;8531;48.078;11.968;2023-10-31T02:24:05;9.90;99.90
16829;DHT22;8531;48.078;11.968;2023-10-31T02:26:32;9.90;99.90
16829;DHT22;8531;48.078;11.968;2023-10-31T02:28:59;9.90;99.90
16829;DHT22;8531;48.078;11.968;2023-10-31T02:31:25;9.80;99.90
16829;DHT22;8531;48.078;11.968;2023-10-31T02:33:51;9.90;99.90
16829;DHT22;8531;48.078;11.968;2023-10-31T02:36:17;9.80;99.90
16829;DHT22;8531;48.078;11.968;2023-10-31T02:38:43;9.80;99.90
16829;DHT22;8531;48.078;11.968;2023-10-31T02:41:09;9.90;99.90
16829;DHT22;8531;48.078;11.968;2023-10-31T02:43:34;9.80;99.90
16829;DHT22;8531;48.078;11.968;2023-10-31T02:46:00;9.90;99.90
16829;DHT22;8531;48.078;11.968;2023-10-31T02:48:26;9.90;99.90
16829;DHT22;8531;48.078;11.968;2023-10-31T02:50:52;9.80;99.90
16829;DHT22;8531;48.078;11.968;2023-10-31T02:53:18;9.80;99.90
16829;DHT22;8531;48.078;11.968;2023-10-31T02:55:44;9.90;99.90
16829;DHT22;8531;48.078;11.968;2023-10-31T02:58:10;9.90;99.90
16829;DHT22;8531;48.078;11.968;2023-10-31T03:00:36;9.80;99.90
16829;DHT22;8531;48.078;11.968;2023-10-31T03:03:02;9.80;99.90
16829;DHT22;8531;48.078;11.968;2023-10-31T03:05:34;9.90;99.90
16829;DHT22;8531;48.078;11.968;2023-10-31T03:07:59;9.90;99.90
16829;DHT22;8531;48.078;11.968;2023-10-31T03:10:26;9.90;99.90
16829;DHT22;8531;48.078;11.968;2023-10-31T03:12:52;9.90;99.90
16829;DHT22;8531;48.078;11.968;2023-10-31T03:15:17;9.90;99.90
16829;DHT22;8531;48.078;11.968;2023-10-31T03:17:43;9.90;99.90
16829;DHT22;8531;48.078;11.968;2023-10-31T03:20:09;9.90;99.90
16829;DHT22;8531;48.078;11.968;2023-10-31T03:22:35;9.90;99.90
16829;DHT22;8531;48.078;11.968;2023-10-31T03:25:01;9.90;99.90
16829;DHT22;8531;48.078;11.968;2023-10-31T03:27:26;9.80;99.90
16829;DHT22;8531;48.078;11.968;2023-10-31T03:29:52;9.90;99.90
16829;DHT22;8531;48.078;11.968;2023-10-31T03:32:18;9.90;99.90
16829;DHT22;8531;48.078;11.968;2023-10-31T03:34:43;9.90;99.90
16829;DHT22;8531;48.078;11.968;2023-10-31T03:37:09;9.90;99.90
16829;DHT22;8531;48.078;11.968;2023-10-31T03:39:34;9.90;99.90
16829;DHT22;8531;48.078;11.968;2023-10-31T03:42:00;9.80;99.90
16829;DHT22;8531;48.078;11.968;2023-10-31T03:44:26;9.80;99.90
16829;DHT22;8531;48.078;11.968;2023-10-31T03:46:51;9.80;99.90
16829;DHT22;8531;48.078;11.968;2023-10-31T03:49:17;9.80;99.90
16829;DHT22;8531;48.078;11.968;2023-10-31T03:51:43;9.80;99.90
16829;DHT22;8531;48.078;11.968;2023-10-31T03:54:08;9.80;99.90
16829;DHT22;8531;48.078;11.968;2023-10-31T03:56:43;9.80;99.90
16829;DHT22;8531;48.078;11.968;2023-10-31T03:59:09;9.80;99.90
16829;DHT22;8531;48.078;11.968;2023-10-31T04:01:35;9.80;99.90
16829;DHT22;8531;48.078;11.968;2023-10-31T04:04:01;9.80;99.90
16829;DHT22;8531;48.078;11.968;2023-10-31T04:06:27;9.80;99.90
16829;DHT22;8531;48.078;11.968;2023-10-31T04:08:52;9.80;99.90
16829;DHT22;8531;48.078;11.968;2023-10-31T04:11:18;9.80;99.90
16829;DHT22;8531;48.078;11.968;2023-10-31T04:13:44;9.80;99.90
16829;DHT22;8531;48.078;11.968;2023-10-31T04:16:09;9.80;99.90
16829;DHT22;8531;48.078;11.968;2023-10-31T04:18:36;9.70;99.90
16829;DHT22;8531;48.078;11.968;2023-10-31T04:21:02;9.70;99.90
16829;DHT22;8531;48.078;11.968;2023-10-31T04:23:27;9.80;99.90
16829;DHT22;8531;48.078;11.968;2023-10-31T04:25:53;9.80;99.90
16829;DHT22;8531;48.078;11.968;2023-10-31T04:28:19;9.70;99.90
16829;DHT22;8531;48.078;11.968;2023-10-31T04:30:44;9.80;99.90
16829;DHT22;8531;48.078;11.968;2023-10-31T04:33:10;9.80;99.90
16829;DHT22;8531;48.078;11.968;2023-10-31T04:35:36;9.80;99.90
16829;DHT22;8531;48.078;11.968;2023-10-31T04:38:02;9.80;99.90
16829;DHT22;8531;48.078;11.968;2023-10-31T04:40:27;9.70;99.90
16829;DHT22;8531;48.078;11.968;2023-10-31T04:42:54;9.70;99.90
16829;DHT22;8531;48.078;11.968;2023-10-31T04:45:20;9.80;99.90
16829;DHT22;8531;48.078;11.968;2023-10-31T04:47:45;9.80;99.90
16829;DHT22;8531;48.078;11.968;2023-10-31T04:50:11;9.70;99.90
16829;DHT22;8531;48.078;11.968;2023-10-31T04:52:37;9.70;99.90
16829;DHT22;8531;48.078;11.968;2023-10-31T04:55:02;9.80;99.90
16829;DHT22;8531;48.078;11.968;2023-10-31T04:57:28;9.70;99.90
16829;DHT22;8531;48.078;11.968;2023-10-31T04:59:54;9.70;99.90
16829;DHT22;8531;48.078;11.968;2023-10-31T05:02:23;9.70;99.90
16829;DHT22;8531;48.078;11.968;2023-10-31T05:04:49;9.70;99.90
16829;DHT22;8531;48.078;11.968;2023-10-31T05:07:17;9.60;99.90
16829;DHT22;8531;48.078;11.968;2023-10-31T05:09:43;9.60;99.90
16829;DHT22;8531;48.078;11.968;2023-10-31T05:12:08;9.60;99.90
16829;DHT22;8531;48.078;11.968;2023-10-31T05:14:34;9.60;99.90
16829;DHT22;8531;48.078;11.968;2023-10-31T05:17:00;9.60;99.90
16829;DHT22;8531;48.078;11.968;2023-10-31T05:19:26;9.60;99.90
16829;DHT22;8531;48.078;11.968;2023-10-31T05:21:51;9.60;99.90
16829;DHT22;8531;48.078;11.968;2023-10-31T05:24:17;9.50;99.90
16829;DHT22;8531;48.078;11.968;2023-10-31T05:26:43;9.60;99.90
16829;DHT22;8531;48.078;11.968;2023-10-31T05:29:10;9.60;99.90
16829;DHT22;8531;48.078;11.968;2023-10-31T05:31:36;9.60;99.90
16829;DHT22;8531;48.078;11.968;2023-10-31T05:34:02;9.60;99.90
16829;DHT22;8531;48.078;11.968;2023-10-31T05:36:29;9.60;99.90
16829;DHT22;8531;48.078;11.968;2023-10-31T05:38:55;9.50;99.90
16829;DHT22;8531;48.078;11.968;2023-10-31T05:41:20;9.50;99.90
16829;DHT22;8531;48.078;11.968;2023-10-31T05:43:46;9.60;99.90
16829;DHT22;8531;48.078;11.968;2023-10-31T05:46:12;9.60;99.90
16829;DHT22;8531;48.078;11.968;2023-10-31T05:48:43;9.60;99.90
16829;DHT22;8531;48.078;11.968;2023-10-31T05:51:16;9.60;99.90
16829;DHT22;8531;48.078;11.968;2023-10-31T05:53:44;9.60;99.90
16829;DHT22;8531;48.078;11.968;2023-10-31T05:56:14;9.60;99.90
16829;DHT22;8531;48.078;11.968;2023-10-31T05:58:41;9.60;99.90
16829;DHT22;8531;48.078;11.968;2023-10-31T06:01:07;9.60;99.90
16829;DHT22;8531;48.078;11.968;2023-10-31T06:03:37;9.70;99.90
16829;DHT22;8531;48.078;11.968;2023-10-31T06:06:03;9.70;99.90
16829;DHT22;8531;48.078;11.968;2023-10-31T06:08:29;9.60;99.90
16829;DHT22;8531;48.078;11.968;2023-10-31T06:10:55;9.60;99.90
16829;DHT22;8531;48.078;11.968;2023-10-31T06:13:21;9.60;99.90
16829;DHT22;8531;48.078;11.968;2023-10-31T06:15:47;9.60;99.90
16829;DHT22;8531;48.078;11.968;2023-10-31T06:18:13;9.70;99.90
16829;DHT22;8531;48.078;11.968;2023-10-31T06:20:39;9.60;99.90
16829;DHT22;8531;48.078;11.968;2023-10-31T06:23:05;9.70;99.90
16829;DHT22;8531;48.078;11.968;2023-10-31T06:25:31;9.70;99.90
16829;DHT22;8531;48.078;11.968;2023-10-31T06:27:57;9.60;99.90
16829;DHT22;8531;48.078;11.968;2023-10-31T06:30:22;9.60;99.90
16829;DHT22;8531;48.078;11.968;2023-10-31T06:32:51;9.60;99.90
16829;DHT22;8531;48.078;11.968;2023-10-31T06:35:17;9.60;99.90
16829;DHT22;8531;48.078;11.968;2023-10-31T06:37:42;9.60;99.90
16829;DHT22;8531;48.078;11.968;2023-10-31T06:40:08;9.60;99.90
16829;DHT22;8531;48.078;11.968;2023-10-31T06:42:35;9.60;99.90
16829;DHT22;8531;48.078;11.968;2023-10-31T06:45:01;9.60;99.90
16829;DHT22;8531;48.078;11.968;2023-10-31T06:47:27;9.60;99.90
16829;DHT22;8531;48.078;11.968;2023-10-31T06:49:52;9.60;99.90
16829;DHT22;8531;48.078;11.968;2023-10-31T06:52:18;9.60;99.90
16829;DHT22;8531;48.078;11.968;2023-10-31T06:54:44;9.60;99.90
16829;DHT22;8531;48.078;11.968;2023-10-31T06:57:09;9.70;99.90
16829;DHT22;8531;48.078;11.968;2023-10-31T06:59:35;9.70;99.90
16829;DHT22;8531;48.078;11.968;2023-10-31T07:02:00;9.70;99.90
16829;DHT22;8531;48.078;11.968;2023-10-31T07:04:26;9.70;99.90
16829;DHT22;8531;48.078;11.968;2023-10-31T07:06:52;9.70;99.90
16829;DHT22;8531;48.078;11.968;2023-10-31T07:09:23;9.80;99.90
16829;DHT22;8531;48.078;11.968;2023-10-31T07:11:49;9.80;99.90
16829;DHT22;8531;48.078;11.968;2023-10-31T07:14:14;9.80;99.90
16829;DHT22;8531;48.078;11.968;2023-10-31T07:16:40;9.80;99.90
16829;DHT22;8531;48.078;11.968;2023-10-31T07:19:08;9.80;99.90
16829;DHT22;8531;48.078;11.968;2023-10-31T07:21:34;9.80;99.90
16829;DHT22;8531;48.078;11.968;2023-10-31T07:23:59;9.80;99.90
16829;DHT22;8531;48.078;11.968;2023-10-31T07:26:26;9.80;99.90
16829;DHT22;8531;48.078;11.968;2023-10-31T07:28:53;9.80;99.90
16829;DHT22;8531;48.078;11.968;2023-10-31T07:31:18;9.80;99.90
16829;DHT22;8531;48.078;11.968;2023-10-31T07:33:47;9.80;99.90
16829;DHT22;8531;48.078;11.968;2023-10-31T07:36:13;9.80;99.90
16829;DHT22;8531;48.078;11.968;2023-10-31T07:38:39;9.80;99.90
16829;DHT22;8531;48.078;11.968;2023-10-31T07:41:04;9.80;99.90
16829;DHT22;8531;48.078;11.968;2023-10-31T07:43:30;9.70;99.90
16829;DHT22;8531;48.078;11.968;2023-10-31T07:45:56;9.70;99.90
16829;DHT22;8531;48.078;11.968;2023-10-31T07:48:21;9.70;99.90
16829;DHT22;8531;48.078;11.968;2023-10-31T07:50:47;9.70;99.90
16829;DHT22;8531;48.078;11.968;2023-10-31T07:53:13;9.70;99.90
16829;DHT22;8531;48.078;11.968;2023-10-31T07:55:38;9.70;99.90
16829;DHT22;8531;48.078;11.968;2023-10-31T07:58:04;9.70;99.90
16829;DHT22;8531;48.078;11.968;2023-10-31T08:00:29;9.70;99.90
16829;DHT22;8531;48.078;11.968;2023-10-31T08:02:56;9.70;99.90
16829;DHT22;8531;48.078;11.968;2023-10-31T08:05:22;9.80;99.90
16829;DHT22;8531;48.078;11.968;2023-10-31T08:07:47;9.70;99.90
16829;DHT22;8531;48.078;11.968;2023-10-31T08:10:14;9.70;99.90
16829;DHT22;8531;48.078;11.968;2023-10-31T08:12:39;9.80;99.90
16829;DHT22;8531;48.078;11.968;2023-10-31T08:15:05;9.80;99.90
16829;DHT22;8531;48.078;11.968;2023-10-31T08:17:31;9.90;99.90
16829;DHT22;8531;48.078;11.968;2023-10-31T08:19:57;9.90;99.90
16829;DHT22;8531;48.078;11.968;2023-10-31T08:22:23;9.90;99.90
16829;DHT22;8531;48.078;11.968;2023-10-31T08:24:48;9.90;99.90
16829;DHT22;8531;48.078;11.968;2023-10-31T08:27:14;9.90;99.90
16829;DHT22;8531;48.078;11.968;2023-10-31T08:29:40;9.80;99.90
16829;DHT22;8531;48.078;11.968;2023-10-31T08:32:06;9.80;99.90
16829;DHT22;8531;48.078;11.968;2023-10-31T08:34:32;9.80;99.90
16829;DHT22;8531;48.078;11.968;2023-10-31T08:36:58;9.70;99.90
16829;DHT22;8531;48.078;11.968;2023-10-31T08:39:25;9.70;99.90
16829;DHT22;8531;48.078;11.968;2023-10-31T08:41:55;9.60;99.90
16829;DHT22;8531;48.078;11.968;2023-10-31T08:44:22;9.60;99.90
16829;DHT22;8531;48.078;11.968;2023-10-31T08:46:47;9.60;99.90
16829;DHT22;8531;48.078;11.968;2023-10-31T08:49:14;9.70;99.90
16829;DHT22;8531;48.078;11.968;2023-10-31T08:51:41;9.70;99.90
16829;DHT22;8531;48.078;11.968;2023-10-31T08:54:07;9.70;99.90
16829;DHT22;8531;48.078;11.968;2023-10-31T08:56:32;9.70;99.90
16829;DHT22;8531;48.078;11.968;2023-10-31T08:58:58;9.70;99.90
16829;DHT22;8531;48.078;11.968;2023-10-31T09:01:24;9.70;99.90
16829;DHT22;8531;48.078;11.968;2023-10-31T09:03:50;9.70;99.90
16829;DHT22;8531;48.078;11.968;2023-10-31T09:06:16;9.70;99.90
16829;DHT22;8531;48.078;11.968;2023-10-31T09:08:41;9.70;99.90
16829;DHT22;8531;48.078;11.968;2023-10-31T09:11:07;9.70;99.90
16829;DHT22;8531;48.078;11.968;2023-10-31T09:13:33;9.70;99.90
16829;DHT22;8531;48.078;11.968;2023-10-31T09:15:59;9.70;99.90
16829;DHT22;8531;48.078;11.968;2023-10-31T09:18:25;9.60;99.90
16829;DHT22;8531;48.078;11.968;2023-10-31T09:20:51;9.60;99.90
16829;DHT22;8531;48.078;11.968;2023-10-31T09:23:17;9.70;99.90
16829;DHT22;8531;48.078;11.968;2023-10-31T09:25:43;9.60;99.90
16829;DHT22;8531;48.078;11.968;2023-10-31T09:28:09;9.70;99.90
16829;DHT22;8531;48.078;11.968;2023-10-31T09:30:35;9.70;99.90
16829;DHT22;8531;48.078;11.968;2023-10-31T09:33:00;9.70;99.90
16829;DHT22;8531;48.078;11.968;2023-10-31T09:35:27;9.70;99.90
16829;DHT22;8531;48.078;11.968;2023-10-31T09:37:53;9.70;99.90
16829;DHT22;8531;48.078;11.968;2023-10-31T09:40:19;9.80;99.90
16829;DHT22;8531;48.078;11.968;2023-10-31T09:42:45;9.90;99.90
16829;DHT22;8531;48.078;11.968;2023-10-31T09:45:12;9.80;99.90
16829;DHT22;8531;48.078;11.968;2023-10-31T09:47:38;9.90;99.90
16829;DHT22;8531;48.078;11.968;2023-10-31T09:50:05;9.90;99.90
16829;DHT22;8531;48.078;11.968;2023-10-31T09:52:32;9.90;99.90
16829;DHT22;8531;48.078;11.968;2023-10-31T09:54:59;9.90;99.90
16829;DHT22;8531;48.078;11.968;2023-10-31T09:57:25;9.90;99.90
16829;DHT22;8531;48.078;11.968;2023-10-31T09:59:52;9.90;99.90
16829;DHT22;8531;48.078;11.968;2023-10-31T10:02:18;10.00;99.90
16829;DHT22;8531;48.078;11.968;2023-10-31T10:04:44;10.00;99.90
16829;DHT22;8531;48.078;11.968;2023-10-31T10:07:17;10.00;99.90
16829;DHT22;8531;48.078;11.968;2023-10-31T10:09:44;10.00;99.90
16829;DHT22;8531;48.078;11.968;2023-10-31T10:12:17;10.10;99.90
16829;DHT22;8531;48.078;11.968;2023-10-31T10:14:46;10.10;99.90
16829;DHT22;8531;48.078;11.968;2023-10-31T10:17:21;10.10;99.90
16829;DHT22;8531;48.078;11.968;2023-10-31T10:19:47;10.10;99.90
16829;DHT22;8531;48.078;11.968;2023-10-31T10:22:13;10.20;99.90
16829;DHT22;8531;48.078;11.968;2023-10-31T10:24:41;10.20;99.90
16829;DHT22;8531;48.078;11.968;2023-10-31T10:27:10;10.10;99.90
16829;DHT22;8531;48.078;11.968;2023-10-31T10:29:37;10.10;99.90
16829;DHT22;8531;48.078;11.968;2023-10-31T10:32:07;10.20;99.90
16829;DHT22;8531;48.078;11.968;2023-10-31T10:34:35;10.20;99.90
16829;DHT22;8531;48.078;11.968;2023-10-31T10:37:05;10.20;99.90
16829;DHT22;8531;48.078;11.968;2023-10-31T10:39:32;10.30;99.90
16829;DHT22;8531;48.078;11.968;2023-10-31T10:42:01;10.30;99.90
16829;DHT22;8531;48.078;11.968;2023-10-31T10:44:35;10.30;99.90
16829;DHT22;8531;48.078;11.968;2023-10-31T10:47:07;10.40;99.90
16829;DHT22;8531;48.078;11.968;2023-10-31T10:49:36;10.30;99.90
16829;DHT22;8531;48.078;11.968;2023-10-31T10:52:22;10.40;99.90
16829;DHT22;8531;48.078;11.968;2023-10-31T10:54:55;10.40;99.90
16829;DHT22;8531;48.078;11.968;2023-10-31T11:00:04;10.50;99.90
16829;DHT22;8531;48.078;11.968;2023-10-31T11:02:32;10.60;99.90
16829;DHT22;8531;48.078;11.968;2023-10-31T11:04:58;10.60;99.90
16829;DHT22;8531;48.078;11.968;2023-10-31T11:07:25;10.50;99.90
16829;DHT22;8531;48.078;11.968;2023-10-31T11:09:53;10.50;99.90
16829;DHT22;8531;48.078;11.968;2023-10-31T11:12:20;10.50;99.90
16829;DHT22;8531;48.078;11.968;2023-10-31T11:14:48;10.60;99.90
16829;DHT22;8531;48.078;11.968;2023-10-31T11:17:24;10.60;99.90
16829;DHT22;8531;48.078;11.968;2023-10-31T11:19:53;10.60;99.90
16829;DHT22;8531;48.078;11.968;2023-10-31T11:22:20;10.60;99.90
16829;DHT22;8531;48.078;11.968;2023-10-31T11:24:45;10.60;99.90
16829;DHT22;8531;48.078;11.968;2023-10-31T11:27:11;10.70;99.90
16829;DHT22;8531;48.078;11.968;2023-10-31T11:29:37;10.70;99.90
16829;DHT22;8531;48.078;11.968;2023-10-31T11:32:03;10.70;99.90
16829;DHT22;8531;48.078;11.968;2023-10-31T11:34:32;10.70;99.90
16829;DHT22;8531;48.078;11.968;2023-10-31T11:42:38;10.80;99.90
16829;DHT22;8531;48.078;11.968;2023-10-31T11:45:08;10.70;99.90
16829;DHT22;8531;48.078;11.968;2023-10-31T11:47:47;10.80;99.90
16829;DHT22;8531;48.078;11.968;2023-10-31T11:50:13;10.90;99.90
16829;DHT22;8531;48.078;11.968;2023-10-31T11:52:39;10.90;99.90
16829;DHT22;8531;48.078;11.968;2023-10-31T11:55:12;11.00;99.90
16829;DHT22;8531;48.078;11.968;2023-10-31T11:57:41;11.10;99.90
16829;DHT22;8531;48.078;11.968;2023-10-31T12:00:07;11.10;99.90
16829;DHT22;8531;48.078;11.968;2023-10-31T12:03:00;11.10;99.90
16829;DHT22;8531;48.078;11.968;2023-10-31T12:05:26;11.10;99.90
16829;DHT22;8531;48.078;11.968;2023-10-31T12:07:52;11.10;99.90
16829;DHT22;8531;48.078;11.968;2023-10-31T12:10:28;11.10;99.90
16829;DHT22;8531;48.078;11.968;2023-10-31T12:12:57;11.10;99.90
16829;DHT22;8531;48.078;11.968;2023-10-31T12:15:26;11.10;99.90
16829;DHT22;8531;48.078;11.968;2023-10-31T12:17:52;11.10;99.90
16829;DHT22;8531;48.078;11.968;2023-10-31T12:20:22;11.20;99.90
16829;DHT22;8531;48.078;11.968;2023-10-31T12:23:01;11.30;99.90
16829;DHT22;8531;48.078;11.968;2023-10-31T12:25:28;11.40;99.90
16829;DHT22;8531;48.078;11.968;2023-10-31T12:27:53;11.40;99.90
16829;DHT22;8531;48.078;11.968;2023-10-31T12:30:21;11.40;99.90
16829;DHT22;8531;48.078;11.968;2023-10-31T12:32:56;11.50;99.90
16829;DHT22;8531;48.078;11.968;2023-10-31T12:35:23;11.50;99.90
16829;DHT22;8531;48.078;11.968;2023-10-31T12:37:50;11.50;99.90
16829;DHT22;8531;48.078;11.968;2023-10-31T12:40:21;11.50;99.90
16829;DHT22;8531;48.078;11.968;2023-10-31T12:42:48;11.40;99.90
16829;DHT22;8531;48.078;11.968;2023-10-31T12:45:14;11.40;99.90
16829;DHT22;8531;48.078;11.968;2023-10-31T12:47:40;11.40;99.90
16829;DHT22;8531;48.078;11.968;2023-10-31T12:50:14;11.40;99.90
16829;DHT22;8531;48.078;11.968;2023-10-31T12:52:53;11.40;99.90
16829;DHT22;8531;48.078;11.968;2023-10-31T12:55:21;11.50;99.90
16829;DHT22;8531;48.078;11.968;2023-10-31T12:57:48;11.50;99.90
16829;DHT22;8531;48.078;11.968;2023-10-31T13:00:15;11.50;99.90
16829;DHT22;8531;48.078;11.968;2023-10-31T13:02:43;11.50;99.90
16829;DHT22;8531;48.078;11.968;2023-10-31T13:05:15;11.50;99.90
16829;DHT22;8531;48.078;11.968;2023-10-31T13:07:51;11.50;99.90
16829;DHT22;8531;48.078;11.968;2023-10-31T13:10:18;11.60;99.90
16829;DHT22;8531;48.078;11.968;2023-10-31T13:12:48;11.60;99.90
16829;DHT22;8531;48.078;11.968;2023-10-31T13:15:15;11.60;99.90
16829;DHT22;8531;48.078;11.968;2023-10-31T13:17:41;11.60;99.90
16829;DHT22;8531;48.078;11.968;2023-10-31T13:20:09;11.60;99.90
16829;DHT22;8531;48.078;11.968;2023-10-31T13:22:36;11.70;99.90
16829;DHT22;8531;48.078;11.968;2023-10-31T13:25:06;11.70;99.90
16829;DHT22;8531;48.078;11.968;2023-10-31T13:27:40;11.70;99.90
16829;DHT22;8531;48.078;11.968;2023-10-31T13:30:07;11.80;99.90
16829;DHT22;8531;48.078;11.968;2023-10-31T13:32:42;11.80;99.90
16829;DHT22;8531;48.078;11.968;2023-10-31T13:35:08;11.80;99.90
16829;DHT22;8531;48.078;11.968;2023-10-31T13:37:35;11.80;99.90
16829;DHT22;8531;48.078;11.968;2023-10-31T13:40:01;11.80;99.90
16829;DHT22;8531;48.078;11.968;2023-10-31T13:42:26;11.90;99.90
16829;DHT22;8531;48.078;11.968;2023-10-31T13:44:54;11.80;99.90
16829;DHT22;8531;48.078;11.968;2023-10-31T13:47:19;11.80;99.90
16829;DHT22;8531;48.078;11.968;2023-10-31T13:49:45;11.70;99.90
16829;DHT22;8531;48.078;11.968;2023-10-31T13:52:11;11.60;99.90
16829;DHT22;8531;48.078;11.968;2023-10-31T13:54:37;11.50;99.90
16829;DHT22;8531;48.078;11.968;2023-10-31T13:57:03;11.30;99.90
16829;DHT22;8531;48.078;11.968;2023-10-31T13:59:29;11.20;99.90
16829;DHT22;8531;48.078;11.968;2023-10-31T14:01:55;11.20;99.90
16829;DHT22;8531;48.078;11.968;2023-10-31T14:04:20;11.10;99.90
16829;DHT22;8531;48.078;11.968;2023-10-31T14:06:46;11.10;99.90
16829;DHT22;8531;48.078;11.968;2023-10-31T14:09:12;11.00;99.90
16829;DHT22;8531;48.078;11.968;2023-10-31T14:11:41;11.10;99.90
16829;DHT22;8531;48.078;11.968;2023-10-31T14:14:07;11.10;99.90
16829;DHT22;8531;48.078;11.968;2023-10-31T14:16:42;11.10;99.90
16829;DHT22;8531;48.078;11.968;2023-10-31T14:19:11;11.10;99.90
16829;DHT22;8531;48.078;11.968;2023-10-31T14:21:37;11.10;99.90
16829;DHT22;8531;48.078;11.968;2023-10-31T14:24:03;11.10;99.90
16829;DHT22;8531;48.078;11.968;2023-10-31T14:26:29;11.10;99.90
16829;DHT22;8531;48.078;11.968;2023-10-31T14:28:56;11.10;99.90
16829;DHT22;8531;48.078;11.968;2023-10-31T14:31:22;11.10;99.90
16829;DHT22;8531;48.078;11.968;2023-10-31T14:33:48;11.00;99.90
16829;DHT22;8531;48.078;11.968;2023-10-31T14:36:14;11.00;99.90
16829;DHT22;8531;48.078;11.968;2023-10-31T14:38:40;11.10;99.90
16829;DHT22;8531;48.078;11.968;2023-10-31T14:41:06;11.10;99.90
16829;DHT22;8531;48.078;11.968;2023-10-31T14:43:36;11.10;99.90
16829;DHT22;8531;48.078;11.968;2023-10-31T14:46:02;11.00;99.90
16829;DHT22;8531;48.078;11.968;2023-10-31T14:48:28;11.10;99.90
16829;DHT22;8531;48.078;11.968;2023-10-31T14:50:55;11.00;99.90
16829;DHT22;8531;48.078;11.968;2023-10-31T14:53:23;11.00;99.90
16829;DHT22;8531;48.078;11.968;2023-10-31T14:55:48;11.00;99.90
16829;DHT22;8531;48.078;11.968;2023-10-31T14:58:14;11.00;99.90
16829;DHT22;8531;48.078;11.968;2023-10-31T15:00:40;11.00;99.90
16829;DHT22;8531;48.078;11.968;2023-10-31T15:03:06;10.90;99.90
16829;DHT22;8531;48.078;11.968;2023-10-31T15:05:32;10.90;99.90
16829;DHT22;8531;48.078;11.968;2023-10-31T15:07:59;11.00;99.90
16829;DHT22;8531;48.078;11.968;2023-10-31T15:10:25;10.90;99.90
16829;DHT22;8531;48.078;11.968;2023-10-31T15:12:53;10.90;99.90
16829;DHT22;8531;48.078;11.968;2023-10-31T15:15:19;10.80;99.90
16829;DHT22;8531;48.078;11.968;2023-10-31T15:17:45;10.80;99.90
16829;DHT22;8531;48.078;11.968;2023-10-31T15:20:13;10.70;99.90
16829;DHT22;8531;48.078;11.968;2023-10-31T15:22:39;10.70;99.90
16829;DHT22;8531;48.078;11.968;2023-10-31T15:25:06;10.70;99.90
16829;DHT22;8531;48.078;11.968;2023-10-31T15:27:31;10.70;99.90
16829;DHT22;8531;48.078;11.968;2023-10-31T15:29:57;10.70;99.90
16829;DHT22;8531;48.078;11.968;2023-10-31T15:32:23;10.70;99.90
16829;DHT22;8531;48.078;11.968;2023-10-31T15:34:49;10.80;99.90
16829;DHT22;8531;48.078;11.968;2023-10-31T15:37:14;10.70;99.90
16829;DHT22;8531;48.078;11.968;2023-10-31T15:39:41;10.70;99.90
16829;DHT22;8531;48.078;11.968;2023-10-31T15:42:08;10.70;99.90